createdAt,value
2022-08-31T00:00:21.765Z,22.44
2022-08-31T00:03:08.585Z,22.45
2022-08-31T00:05:38.599Z,22.46
2022-08-31T00:08:06.829Z,22.42
2022-08-31T00:10:37.059Z,22.41
2022-08-31T00:13:07.049Z,22.34
2022-08-31T00:15:35.989Z,22.30
2022-08-31T00:18:05.921Z,22.31
2022-08-31T00:20:35.013Z,22.32
2022-08-31T00:23:03.781Z,22.33
2022-08-31T00:25:32.268Z,22.32
2022-08-31T00:28:00.115Z,22.22
2022-08-31T00:30:28.292Z,22.21
2022-08-31T00:32:58.370Z,22.21
2022-08-31T00:35:28.910Z,21.98
2022-08-31T00:37:57.776Z,22.03
2022-08-31T00:40:26.664Z,21.92
2022-08-31T00:42:56.005Z,21.96
2022-08-31T00:45:24.985Z,21.89
2022-08-31T00:47:53.117Z,21.88
2022-08-31T00:50:23.306Z,21.83
2022-08-31T00:52:56.305Z,21.74
2022-08-31T00:55:29.285Z,21.65
2022-08-31T00:58:00.775Z,21.58
2022-08-31T01:00:30.030Z,21.65
2022-08-31T01:03:01.725Z,21.73
2022-08-31T01:05:31.082Z,21.71
2022-08-31T01:08:02.077Z,21.63
2022-08-31T01:10:33.946Z,21.66
2022-08-31T01:13:02.919Z,21.63
2022-08-31T01:15:32.070Z,21.66
2022-08-31T01:18:03.035Z,21.60
2022-08-31T01:20:37.581Z,21.58
2022-08-31T01:23:14.391Z,21.66
2022-08-31T01:25:45.647Z,21.72
2022-08-31T01:28:14.737Z,21.70
2022-08-31T01:30:44.929Z,21.72
2022-08-31T01:33:13.342Z,21.75
2022-08-31T01:35:46.153Z,21.65
2022-08-31T01:38:15.723Z,21.72
2022-08-31T01:40:48.489Z,21.64
2022-08-31T01:43:16.682Z,21.58
2022-08-31T01:45:45.000Z,21.62
2022-08-31T01:48:13.273Z,21.60
2022-08-31T01:50:41.078Z,21.62
2022-08-31T01:53:09.232Z,21.54
2022-08-31T01:55:38.820Z,21.60
2022-08-31T01:58:07.563Z,21.51
2022-08-31T02:00:36.688Z,21.57
2022-08-31T02:03:07.846Z,21.57
2022-08-31T02:05:36.813Z,21.55
2022-08-31T02:08:06.330Z,21.50
2022-08-31T02:10:34.634Z,21.53
2022-08-31T02:13:04.409Z,21.41
2022-08-31T02:15:32.529Z,21.48
2022-08-31T02:18:00.545Z,21.46
2022-08-31T02:20:29.778Z,21.41
2022-08-31T02:22:58.531Z,21.44
2022-08-31T02:25:26.543Z,21.30
2022-08-31T02:27:54.300Z,21.27
2022-08-31T02:30:23.672Z,21.37
2022-08-31T02:32:51.787Z,21.41
2022-08-31T02:35:19.767Z,21.36
2022-08-31T02:37:47.901Z,21.32
2022-08-31T02:40:16.375Z,21.35
2022-08-31T02:42:53.315Z,21.37
2022-08-31T02:45:24.668Z,21.38
2022-08-31T02:47:52.674Z,21.30
2022-08-31T02:50:20.960Z,21.36
2022-08-31T02:52:49.939Z,21.27
2022-08-31T02:55:18.885Z,21.26
2022-08-31T02:57:50.406Z,21.22
2022-08-31T03:00:19.659Z,21.18
2022-08-31T03:02:49.211Z,21.21
2022-08-31T03:05:17.485Z,21.15
2022-08-31T03:07:45.431Z,21.10
2022-08-31T03:10:15.540Z,21.14
2022-08-31T03:12:43.787Z,21.15
2022-08-31T03:15:12.330Z,21.11
2022-08-31T03:17:40.414Z,21.11
2022-08-31T03:20:11.317Z,21.17
2022-08-31T03:22:40.605Z,21.18
2022-08-31T03:25:13.714Z,21.20
2022-08-31T03:27:42.347Z,21.21
2022-08-31T03:30:12.992Z,21.16
2022-08-31T03:32:42.915Z,21.25
2022-08-31T03:35:12.694Z,21.23
2022-08-31T03:37:40.542Z,21.23
2022-08-31T03:40:10.390Z,21.26
2022-08-31T03:42:38.444Z,21.20
2022-08-31T03:45:08.544Z,21.24
2022-08-31T03:47:44.442Z,21.25
2022-08-31T03:50:15.982Z,21.16
2022-08-31T03:52:44.232Z,21.15
2022-08-31T03:55:12.769Z,21.21
2022-08-31T03:57:40.708Z,21.24
2022-08-31T04:00:10.671Z,21.19
2022-08-31T04:02:39.466Z,21.14
2022-08-31T04:05:08.898Z,21.21
2022-08-31T04:07:42.725Z,21.14
2022-08-31T04:10:12.370Z,21.12
2022-08-31T04:12:40.321Z,21.11
2022-08-31T04:15:09.698Z,21.10
2022-08-31T04:17:38.160Z,21.08
2022-08-31T04:20:07.632Z,21.07
2022-08-31T04:22:35.501Z,21.08
2022-08-31T04:25:05.165Z,20.99
2022-08-31T04:27:33.024Z,21.05
2022-08-31T04:30:02.024Z,21.07
2022-08-31T04:32:30.294Z,21.04
2022-08-31T04:34:58.260Z,20.97
2022-08-31T04:37:26.399Z,20.81
2022-08-31T04:39:55.502Z,20.89
2022-08-31T04:42:31.035Z,20.89
2022-08-31T04:44:59.078Z,20.89
2022-08-31T04:47:26.907Z,20.85
2022-08-31T04:49:55.102Z,20.85
2022-08-31T04:52:28.104Z,20.89
2022-08-31T04:54:56.804Z,20.90
2022-08-31T04:57:24.651Z,20.87
2022-08-31T04:59:53.859Z,20.87
2022-08-31T05:02:21.922Z,20.83
2022-08-31T05:04:49.826Z,20.85
2022-08-31T05:07:17.703Z,20.86
2022-08-31T05:09:45.859Z,20.82
2022-08-31T05:12:13.660Z,20.84
2022-08-31T05:14:43.648Z,20.78
2022-08-31T05:17:15.006Z,20.82
2022-08-31T05:19:43.456Z,20.65
2022-08-31T05:22:11.252Z,20.71
2022-08-31T05:24:39.115Z,20.77
2022-08-31T05:27:07.878Z,20.69
2022-08-31T05:29:35.709Z,20.76
2022-08-31T05:32:03.837Z,20.71
2022-08-31T05:34:34.287Z,20.69
2022-08-31T05:37:02.101Z,20.65
2022-08-31T05:39:30.905Z,20.54
2022-08-31T05:41:59.093Z,20.54
2022-08-31T05:44:29.333Z,20.66
2022-08-31T05:47:03.479Z,20.72
2022-08-31T05:49:33.661Z,20.74
2022-08-31T05:52:02.206Z,20.70
2022-08-31T05:54:30.414Z,20.66
2022-08-31T05:57:01.284Z,20.71
2022-08-31T05:59:30.264Z,20.71
2022-08-31T06:01:58.264Z,20.68
2022-08-31T06:04:26.471Z,20.71
2022-08-31T06:06:55.679Z,20.74
2022-08-31T06:09:23.895Z,20.78
2022-08-31T06:11:52.288Z,20.85
2022-08-31T06:14:22.791Z,20.81
2022-08-31T06:16:51.769Z,20.89
2022-08-31T06:19:20.541Z,20.93
2022-08-31T06:21:52.185Z,20.94
2022-08-31T06:24:21.399Z,20.97
2022-08-31T06:26:56.753Z,20.92
2022-08-31T06:29:25.929Z,20.89
2022-08-31T06:31:54.299Z,20.97
2022-08-31T06:34:23.413Z,20.85
2022-08-31T06:36:51.377Z,20.91
2022-08-31T06:39:19.537Z,20.92
2022-08-31T06:41:52.584Z,20.82
2022-08-31T06:44:22.433Z,20.61
2022-08-31T06:46:50.699Z,20.67
2022-08-31T06:49:19.234Z,20.64
2022-08-31T06:51:47.373Z,20.62
2022-08-31T06:54:29.169Z,20.63
2022-08-31T06:57:00.055Z,20.66
2022-08-31T06:59:29.783Z,20.76
2022-08-31T07:01:59.181Z,20.78
2022-08-31T07:04:27.677Z,20.83
2022-08-31T07:06:55.527Z,20.73
2022-08-31T07:09:23.769Z,20.78
2022-08-31T07:11:53.552Z,20.86
2022-08-31T07:14:24.835Z,21.00
2022-08-31T07:16:54.800Z,21.07
2022-08-31T07:19:23.021Z,20.94
2022-08-31T07:21:52.414Z,20.97
2022-08-31T07:24:24.390Z,21.17
2022-08-31T07:26:54.432Z,21.30
2022-08-31T07:29:25.933Z,21.30
2022-08-31T07:31:56.247Z,21.24
2022-08-31T07:34:27.250Z,21.32
2022-08-31T07:37:14.677Z,21.27
2022-08-31T07:40:06.788Z,21.37
2022-08-31T07:42:38.567Z,21.48
2022-08-31T07:45:12.997Z,21.48
2022-08-31T07:47:47.202Z,21.59
2022-08-31T07:50:19.506Z,21.60
2022-08-31T07:52:54.183Z,21.42
2022-08-31T07:55:24.477Z,21.33
2022-08-31T07:57:54.956Z,21.38
2022-08-31T08:00:26.787Z,21.28
2022-08-31T08:02:55.296Z,21.16
2022-08-31T08:05:26.785Z,21.22
2022-08-31T08:08:11.879Z,21.29
2022-08-31T08:10:52.176Z,21.29
2022-08-31T08:13:22.716Z,21.19
2022-08-31T08:15:52.807Z,21.32
2022-08-31T08:18:21.300Z,21.33
2022-08-31T08:20:49.697Z,21.34
2022-08-31T08:23:27.719Z,21.20
2022-08-31T08:26:01.294Z,21.29
2022-08-31T08:28:40.112Z,21.47
2022-08-31T08:31:14.637Z,21.35
2022-08-31T08:33:43.541Z,21.58
2022-08-31T08:36:12.606Z,21.57
2022-08-31T08:38:44.048Z,21.80
2022-08-31T08:41:16.915Z,22.00
2022-08-31T08:43:52.418Z,22.07
2022-08-31T08:46:35.260Z,22.26
2022-08-31T08:49:14.461Z,22.20
2022-08-31T08:51:44.086Z,22.35
2022-08-31T08:54:14.738Z,22.44
2022-08-31T08:56:47.860Z,22.57
2022-08-31T08:59:19.648Z,22.70
2022-08-31T09:01:56.421Z,22.77
2022-08-31T09:04:45.015Z,22.82
2022-08-31T09:07:30.741Z,22.91
2022-08-31T09:10:02.996Z,23.11
2022-08-31T09:12:44.765Z,23.09
2022-08-31T09:15:36.867Z,23.08
2022-08-31T09:18:17.987Z,23.29
2022-08-31T09:21:02.792Z,23.29
2022-08-31T09:23:36.834Z,23.39
2022-08-31T09:26:08.363Z,23.39
2022-08-31T09:28:39.133Z,23.49
2022-08-31T09:31:07.317Z,23.59
2022-08-31T09:33:51.139Z,23.46
2022-08-31T09:36:22.822Z,23.50
2022-08-31T09:38:51.966Z,23.61
2022-08-31T09:41:33.069Z,23.65
2022-08-31T09:44:34.485Z,23.80
2022-08-31T09:47:05.739Z,23.94
2022-08-31T09:49:37.742Z,24.02
2022-08-31T09:52:42.632Z,24.10
2022-08-31T09:55:14.701Z,24.28
2022-08-31T09:57:45.613Z,24.24
2022-08-31T10:00:16.886Z,24.44
2022-08-31T10:02:44.912Z,24.38
2022-08-31T10:05:37.099Z,24.47
2022-08-31T10:08:18.882Z,24.62
2022-08-31T10:10:51.117Z,24.68
2022-08-31T10:13:24.168Z,24.64
2022-08-31T10:15:58.078Z,24.80
2022-08-31T10:18:32.837Z,24.68
2022-08-31T10:21:08.351Z,24.49
2022-08-31T10:23:42.004Z,24.61
2022-08-31T10:26:17.548Z,24.69
2022-08-31T10:28:50.967Z,24.79
2022-08-31T10:31:25.485Z,24.74
2022-08-31T10:34:18.883Z,24.82
2022-08-31T10:36:54.049Z,24.78
2022-08-31T10:39:29.999Z,24.93
2022-08-31T10:42:05.652Z,24.93
2022-08-31T10:44:39.368Z,24.95
2022-08-31T10:47:08.893Z,25.00
2022-08-31T10:49:42.532Z,24.96
2022-08-31T10:52:18.212Z,25.07
2022-08-31T10:54:54.516Z,25.09
2022-08-31T10:57:33.257Z,25.29
2022-08-31T11:00:07.514Z,25.22
2022-08-31T11:02:59.843Z,25.27
2022-08-31T11:05:35.502Z,25.18
2022-08-31T11:08:28.041Z,25.26
2022-08-31T11:10:58.200Z,25.39
2022-08-31T11:13:51.686Z,25.42
2022-08-31T11:16:43.800Z,25.36
2022-08-31T11:19:39.350Z,25.38
2022-08-31T11:22:31.819Z,25.29
2022-08-31T11:25:17.885Z,25.42
2022-08-31T11:27:51.095Z,25.50
2022-08-31T11:30:24.569Z,25.43
2022-08-31T11:32:55.551Z,25.52
2022-08-31T11:36:06.069Z,25.56
2022-08-31T11:38:48.457Z,25.43
2022-08-31T11:41:41.345Z,25.54
2022-08-31T11:44:11.254Z,25.75
2022-08-31T11:47:02.289Z,25.60
2022-08-31T11:49:48.691Z,25.83
2022-08-31T11:52:48.307Z,25.78
2022-08-31T11:55:24.179Z,25.74
2022-08-31T11:58:20.824Z,25.87
2022-08-31T12:00:58.765Z,25.92
2022-08-31T12:03:53.896Z,25.98
2022-08-31T12:07:07.249Z,25.83
2022-08-31T12:10:04.810Z,26.02
2022-08-31T12:12:44.445Z,26.21
2022-08-31T12:15:23.186Z,26.14
2022-08-31T12:18:05.552Z,26.21
2022-08-31T12:21:13.066Z,26.29
2022-08-31T12:23:56.429Z,26.21
2022-08-31T12:26:45.047Z,26.41
2022-08-31T12:29:23.891Z,26.57
2022-08-31T12:32:21.804Z,26.71
2022-08-31T12:34:57.328Z,26.73
2022-08-31T12:37:27.592Z,26.73
2022-08-31T12:40:16.881Z,26.53
2022-08-31T12:42:57.870Z,26.68
2022-08-31T12:45:44.432Z,26.82
2022-08-31T12:48:27.038Z,26.88
2022-08-31T12:51:03.859Z,26.93
2022-08-31T12:53:52.873Z,26.90
2022-08-31T12:56:30.294Z,26.81
2022-08-31T12:59:09.399Z,26.85
2022-08-31T13:01:43.062Z,26.89
2022-08-31T13:04:15.454Z,26.78
2022-08-31T13:06:45.247Z,26.84
2022-08-31T13:09:27.450Z,26.75
2022-08-31T13:11:58.108Z,26.77
2022-08-31T13:14:28.888Z,26.80
2022-08-31T13:17:01.302Z,26.89
2022-08-31T13:19:33.506Z,26.75
2022-08-31T13:22:05.583Z,26.69
2022-08-31T13:24:36.855Z,26.80
2022-08-31T13:27:18.014Z,26.72
2022-08-31T13:29:47.404Z,26.72
2022-08-31T13:32:32.618Z,26.77
2022-08-31T13:35:04.746Z,26.92
2022-08-31T13:37:38.242Z,27.03
2022-08-31T13:40:09.931Z,27.13
2022-08-31T13:42:42.736Z,27.22
2022-08-31T13:45:26.819Z,27.06
2022-08-31T13:47:58.412Z,27.18
2022-08-31T13:50:34.385Z,27.25
2022-08-31T13:55:54.027Z,27.23
2022-08-31T13:58:29.366Z,27.30
2022-08-31T14:01:23.229Z,27.41
2022-08-31T14:03:57.246Z,27.47
2022-08-31T14:06:29.801Z,27.47
2022-08-31T14:09:07.213Z,27.54
2022-08-31T14:11:35.768Z,27.39
2022-08-31T14:14:07.372Z,27.40
2022-08-31T14:16:38.997Z,27.35
2022-08-31T14:19:12.252Z,27.35
2022-08-31T14:21:43.658Z,27.14
2022-08-31T14:24:12.503Z,27.29
2022-08-31T14:26:42.993Z,27.29
2022-08-31T14:29:14.473Z,27.34
2022-08-31T14:31:48.559Z,27.46
2022-08-31T14:34:26.346Z,27.54
2022-08-31T14:37:02.164Z,27.62
2022-08-31T14:39:32.420Z,27.68
2022-08-31T14:42:02.938Z,27.61
2022-08-31T14:44:33.940Z,27.59
2022-08-31T14:47:02.143Z,27.61
2022-08-31T14:49:36.001Z,27.68
2022-08-31T14:52:07.062Z,27.77
2022-08-31T14:54:37.620Z,27.84
2022-08-31T14:57:12.558Z,27.91
2022-08-31T14:59:43.445Z,27.85
2022-08-31T15:02:14.127Z,27.83
2022-08-31T15:04:45.762Z,27.75
2022-08-31T15:07:16.594Z,27.85
2022-08-31T15:09:46.765Z,27.90
2022-08-31T15:12:16.532Z,27.85
2022-08-31T15:14:47.145Z,27.72
2022-08-31T15:17:19.457Z,27.74
2022-08-31T15:19:50.430Z,27.83
2022-08-31T15:22:20.680Z,27.88
2022-08-31T15:24:50.077Z,27.92
2022-08-31T15:27:18.575Z,27.97
2022-08-31T15:29:49.621Z,27.99
2022-08-31T15:32:18.762Z,28.02
2022-08-31T15:34:53.429Z,28.06
2022-08-31T15:37:23.002Z,28.04
2022-08-31T15:39:51.552Z,28.06
2022-08-31T15:42:21.449Z,27.71
2022-08-31T15:44:56.205Z,27.80
2022-08-31T15:47:43.320Z,27.92
2022-08-31T15:50:11.923Z,27.96
2022-08-31T15:52:51.062Z,27.97
2022-08-31T15:55:26.879Z,27.98
2022-08-31T15:57:59.363Z,27.93
2022-08-31T16:00:32.661Z,27.91
2022-08-31T16:03:02.109Z,27.96
2022-08-31T16:05:35.985Z,27.95
2022-08-31T16:08:08.383Z,27.98
2022-08-31T16:10:37.107Z,27.82
2022-08-31T16:13:06.262Z,27.88
2022-08-31T16:15:34.517Z,27.81
2022-08-31T16:18:03.391Z,27.85
2022-08-31T16:20:31.532Z,27.88
2022-08-31T16:23:00.707Z,27.82
2022-08-31T16:25:47.743Z,27.81
2022-08-31T16:28:17.817Z,27.86
2022-08-31T16:30:46.402Z,27.85
2022-08-31T16:33:14.412Z,27.62
2022-08-31T16:35:44.624Z,27.76
2022-08-31T16:38:13.112Z,27.73
2022-08-31T16:40:42.880Z,27.73
2022-08-31T16:43:11.246Z,27.68
2022-08-31T16:45:40.324Z,27.72
2022-08-31T16:48:29.533Z,27.52
2022-08-31T16:51:02.294Z,27.54
2022-08-31T16:53:30.714Z,27.47
2022-08-31T16:56:00.790Z,27.52
2022-08-31T16:58:50.773Z,27.54
2022-08-31T17:01:20.222Z,27.57
2022-08-31T17:03:50.380Z,27.56
2022-08-31T17:06:19.292Z,27.60
2022-08-31T17:08:47.228Z,27.58
2022-08-31T17:11:23.567Z,27.58
2022-08-31T17:13:58.112Z,27.51
2022-08-31T17:16:28.335Z,27.53
2022-08-31T17:18:58.392Z,27.53
2022-08-31T17:21:29.443Z,27.54
2022-08-31T17:23:59.773Z,27.54
2022-08-31T17:26:33.792Z,27.55
2022-08-31T17:29:03.335Z,27.51
2022-08-31T17:31:33.612Z,27.45
2022-08-31T17:34:01.911Z,27.39
2022-08-31T17:36:37.402Z,27.35
2022-08-31T17:39:06.355Z,27.38
2022-08-31T17:41:36.256Z,27.29
2022-08-31T17:44:05.697Z,27.32
2022-08-31T17:46:33.867Z,27.35
2022-08-31T17:49:02.416Z,27.24
2022-08-31T17:51:35.029Z,27.29
2022-08-31T17:54:05.194Z,27.26
2022-08-31T17:56:36.996Z,27.25
2022-08-31T17:59:05.618Z,27.21
2022-08-31T18:01:35.728Z,27.22
2022-08-31T18:04:05.441Z,27.22
2022-08-31T18:06:33.510Z,27.19
2022-08-31T18:09:02.200Z,27.19
2022-08-31T18:11:30.437Z,27.17
2022-08-31T18:13:59.819Z,27.13
2022-08-31T18:16:28.683Z,27.09
2022-08-31T18:18:57.216Z,27.06
2022-08-31T18:21:25.407Z,27.00
2022-08-31T18:23:54.546Z,26.97
2022-08-31T18:26:24.807Z,26.96
2022-08-31T18:28:53.605Z,26.91
2022-08-31T18:31:30.859Z,26.92
2022-08-31T18:33:59.246Z,26.91
2022-08-31T18:36:29.124Z,26.91
2022-08-31T18:39:00.155Z,26.91
2022-08-31T18:41:47.618Z,26.90
2022-08-31T18:44:34.620Z,26.90
2022-08-31T18:47:07.465Z,26.90
2022-08-31T18:49:39.049Z,26.87
2022-08-31T18:52:09.396Z,26.85
2022-08-31T18:54:37.446Z,26.84
2022-08-31T18:57:05.486Z,26.81
2022-08-31T18:59:33.286Z,26.80
2022-08-31T19:02:01.256Z,26.79
2022-08-31T19:04:30.864Z,26.79
2022-08-31T19:06:59.212Z,26.77
2022-08-31T19:09:27.000Z,26.76
2022-08-31T19:12:02.251Z,26.74
2022-08-31T19:14:32.251Z,26.78
2022-08-31T19:17:03.745Z,26.76
2022-08-31T19:19:34.276Z,26.73
2022-08-31T19:22:02.439Z,26.70
2022-08-31T19:24:30.279Z,26.65
2022-08-31T19:26:59.958Z,26.62
2022-08-31T19:29:30.883Z,26.58
2022-08-31T19:32:00.866Z,26.55
2022-08-31T19:34:31.114Z,26.52
2022-08-31T19:37:02.015Z,26.47
2022-08-31T19:39:36.959Z,26.41
2022-08-31T19:42:07.000Z,26.40
2022-08-31T19:47:25.615Z,26.25
2022-08-31T19:49:53.787Z,26.19
2022-08-31T19:52:24.280Z,26.15
2022-08-31T19:54:52.246Z,26.10
2022-08-31T19:57:21.758Z,26.06
2022-08-31T19:59:50.045Z,26.00
2022-08-31T20:02:18.504Z,25.94
2022-08-31T20:04:46.361Z,25.92
2022-08-31T20:07:14.557Z,25.91
2022-08-31T20:09:43.977Z,25.89
2022-08-31T20:12:12.324Z,25.84
2022-08-31T20:14:40.155Z,25.82
2022-08-31T20:17:09.721Z,25.79
2022-08-31T20:19:39.673Z,25.71
2022-08-31T20:22:08.538Z,25.70
2022-08-31T20:24:39.187Z,25.66
2022-08-31T20:27:16.458Z,25.59
2022-08-31T20:29:46.541Z,25.55
2022-08-31T20:32:14.460Z,25.52
2022-08-31T20:34:43.488Z,25.44
2022-08-31T20:37:12.745Z,25.36
2022-08-31T20:39:42.074Z,25.31
2022-08-31T20:42:10.229Z,25.30
2022-08-31T20:44:39.680Z,25.29
2022-08-31T20:47:35.641Z,25.26
2022-08-31T20:50:07.212Z,25.26
2022-08-31T20:52:36.604Z,25.20
2022-08-31T20:55:07.211Z,25.13
2022-08-31T20:57:37.872Z,25.10
2022-08-31T21:00:10.410Z,25.15
2022-08-31T21:02:40.015Z,25.11
2022-08-31T21:05:37.011Z,25.10
2022-08-31T21:07:59.726Z,25.06
2022-08-31T21:10:37.733Z,25.07
2022-08-31T21:13:11.276Z,25.01
2022-08-31T21:15:47.034Z,25.02
2022-08-31T21:18:17.984Z,24.98
2022-08-31T21:20:46.121Z,24.92
2022-08-31T21:23:13.963Z,24.94
2022-08-31T21:25:44.901Z,24.85
2022-08-31T21:28:16.973Z,24.81
2022-08-31T21:30:49.578Z,24.84
2022-08-31T21:33:17.881Z,24.76
2022-08-31T21:35:46.011Z,24.81
2022-08-31T21:38:14.158Z,24.77
2022-08-31T21:40:48.919Z,24.75
2022-08-31T21:43:17.059Z,24.78
2022-08-31T21:45:46.399Z,24.79
2022-08-31T21:48:14.218Z,24.78
2022-08-31T21:50:42.317Z,24.66
2022-08-31T21:53:10.333Z,24.68
2022-08-31T21:55:38.807Z,24.70
2022-08-31T21:58:06.856Z,24.58
2022-08-31T22:00:34.972Z,24.58
2022-08-31T22:03:05.480Z,24.56
2022-08-31T22:05:38.928Z,24.53
2022-08-31T22:08:07.057Z,24.51
2022-08-31T22:10:39.179Z,24.45
2022-08-31T22:13:07.784Z,24.31
2022-08-31T22:15:36.691Z,24.29
2022-08-31T22:18:46.159Z,24.38
2022-08-31T22:20:55.283Z,24.27
2022-08-31T22:23:23.962Z,24.30
2022-08-31T22:25:51.806Z,24.26
2022-08-31T22:28:21.876Z,24.23
2022-08-31T22:30:50.247Z,24.24
2022-08-31T22:33:19.455Z,24.22
2022-08-31T22:35:47.441Z,24.24
2022-08-31T22:38:19.027Z,24.26
2022-08-31T22:40:50.000Z,24.26
2022-08-31T22:43:18.741Z,24.28
2022-08-31T22:45:48.624Z,24.28
2022-08-31T22:48:16.980Z,24.26
2022-08-31T22:50:46.328Z,24.26
2022-08-31T22:53:14.174Z,24.25
2022-08-31T22:55:43.310Z,24.22
2022-08-31T22:58:12.591Z,24.19
2022-08-31T23:00:40.922Z,24.18
2022-08-31T23:03:11.754Z,24.17
2022-08-31T23:05:43.477Z,24.15
2022-08-31T23:08:14.110Z,24.07
2022-08-31T23:10:42.547Z,24.02
2022-08-31T23:13:10.406Z,23.98
2022-08-31T23:15:38.458Z,23.95
2022-08-31T23:18:10.557Z,23.94
2022-08-31T23:20:42.095Z,23.94
2022-08-31T23:23:10.402Z,23.93
2022-08-31T23:25:40.685Z,23.95
2022-08-31T23:28:08.949Z,23.96
2022-08-31T23:30:37.853Z,23.96
2022-08-31T23:33:06.030Z,23.95
2022-08-31T23:35:34.663Z,23.94
2022-08-31T23:38:02.763Z,23.91
2022-08-31T23:40:34.019Z,23.88
2022-08-31T23:43:05.040Z,23.87
2022-08-31T23:45:33.462Z,23.84
2022-08-31T23:48:01.485Z,23.82
2022-08-31T23:50:29.677Z,23.82
2022-08-31T23:52:57.513Z,23.81
2022-08-31T23:55:31.415Z,23.80
2022-08-31T23:57:59.448Z,23.80
